createdAt,value
2022-10-08T00:01:29.756Z,95914.53
2022-10-08T00:03:59.109Z,95907.00
2022-10-08T00:06:29.933Z,95903.91
2022-10-08T00:08:59.917Z,95896.44
2022-10-08T00:11:29.679Z,95892.34
2022-10-08T00:13:58.461Z,95895.81
2022-10-08T00:16:28.085Z,95901.97
2022-10-08T00:19:01.399Z,95906.06
2022-10-08T00:21:31.551Z,95900.97
2022-10-08T00:24:03.350Z,95897.66
2022-10-08T00:26:32.964Z,95896.75
2022-10-08T00:29:02.913Z,95897.84
2022-10-08T00:31:32.888Z,95894.69
2022-10-08T00:34:03.721Z,95904.41
2022-10-08T00:36:33.155Z,95899.13
2022-10-08T00:39:03.892Z,95898.94
2022-10-08T00:41:33.879Z,95895.13
2022-10-08T00:44:03.450Z,95896.59
2022-10-08T00:46:36.667Z,95898.59
2022-10-08T00:49:12.211Z,95888.97
2022-10-08T00:51:44.444Z,95879.13
2022-10-08T00:54:15.150Z,95886.75
2022-10-08T00:56:44.129Z,95881.53
2022-10-08T00:59:13.975Z,95879.50
2022-10-08T01:01:43.442Z,95875.22
2022-10-08T01:04:15.084Z,95872.69
2022-10-08T01:06:50.125Z,95878.09
2022-10-08T01:09:22.607Z,95865.59
2022-10-08T01:11:54.574Z,95868.13
2022-10-08T01:14:35.705Z,95869.41
2022-10-08T01:17:11.294Z,95860.56
2022-10-08T01:20:07.333Z,95865.09
2022-10-08T01:22:44.665Z,95864.00
2022-10-08T01:25:34.277Z,95865.09
2022-10-08T01:28:11.134Z,95864.09
2022-10-08T01:30:42.932Z,95869.00
2022-10-08T01:33:15.822Z,95857.44
2022-10-08T01:35:46.660Z,95852.47
2022-10-08T01:38:17.572Z,95855.72
2022-10-08T01:40:48.454Z,95859.63
2022-10-08T01:43:22.061Z,95854.72
2022-10-08T01:45:57.014Z,95858.13
2022-10-08T01:48:29.145Z,95863.03
2022-10-08T01:51:03.723Z,95845.38
2022-10-08T01:53:38.555Z,95844.47
2022-10-08T01:56:11.498Z,95846.59
2022-10-08T01:58:49.837Z,95842.47
2022-10-08T02:01:24.935Z,95844.28
2022-10-08T02:04:10.766Z,95845.47
2022-10-08T02:06:42.101Z,95842.09
2022-10-08T02:09:11.491Z,95842.66
2022-10-08T02:11:39.195Z,95844.75
2022-10-08T02:14:09.110Z,95837.94
2022-10-08T02:16:43.638Z,95840.66
2022-10-08T02:19:17.751Z,95838.19
2022-10-08T02:21:47.405Z,95843.03
2022-10-08T02:24:19.586Z,95837.53
2022-10-08T02:26:50.627Z,95836.59
2022-10-08T02:29:23.588Z,95839.84
2022-10-08T02:31:56.023Z,95837.28
2022-10-08T02:34:27.432Z,95838.03
2022-10-08T02:37:02.449Z,95833.44
2022-10-08T02:39:34.053Z,95839.34
2022-10-08T02:42:05.566Z,95838.59
2022-10-08T02:44:39.661Z,95838.25
2022-10-08T02:47:12.945Z,95842.16
2022-10-08T02:49:44.202Z,95838.47
2022-10-08T02:52:13.400Z,95831.91
2022-10-08T02:54:44.714Z,95833.31
2022-10-08T02:57:17.136Z,95832.22
2022-10-08T02:59:48.413Z,95838.38
2022-10-08T03:02:21.176Z,95834.38
2022-10-08T03:04:54.885Z,95826.75
2022-10-08T03:07:24.210Z,95833.84
2022-10-08T03:09:55.867Z,95841.03
2022-10-08T03:12:23.602Z,95841.69
2022-10-08T03:14:53.759Z,95841.56
2022-10-08T03:17:25.742Z,95838.59
2022-10-08T03:19:53.481Z,95838.31
2022-10-08T03:22:21.402Z,95842.03
2022-10-08T03:24:51.762Z,95845.88
2022-10-08T03:27:22.128Z,95846.31
2022-10-08T03:29:49.819Z,95845.22
2022-10-08T03:32:19.453Z,95845.31
2022-10-08T03:34:47.101Z,95836.00
2022-10-08T03:37:15.386Z,95848.22
2022-10-08T03:39:43.565Z,95846.84
2022-10-08T03:42:11.607Z,95845.47
2022-10-08T03:44:39.447Z,95838.44
2022-10-08T03:47:07.151Z,95839.81
2022-10-08T03:49:36.320Z,95839.34
2022-10-08T03:52:04.731Z,95841.09
2022-10-08T03:54:34.594Z,95847.28
2022-10-08T03:57:02.657Z,95839.88
2022-10-08T03:59:30.414Z,95845.28
2022-10-08T04:01:58.517Z,95849.13
2022-10-08T04:04:26.179Z,95856.22
2022-10-08T04:06:55.967Z,95861.34
2022-10-08T04:09:23.626Z,95861.44
2022-10-08T04:11:51.627Z,95855.44
2022-10-08T04:14:19.262Z,95855.88
2022-10-08T04:16:48.413Z,95856.63
2022-10-08T04:19:17.494Z,95856.31
2022-10-08T04:21:45.767Z,95854.06
2022-10-08T04:24:14.774Z,95862.06
2022-10-08T04:26:43.102Z,95864.06
2022-10-08T04:29:12.492Z,95864.00
2022-10-08T04:31:41.527Z,95853.97
2022-10-08T04:34:11.142Z,95858.69
2022-10-08T04:36:40.570Z,95855.63
2022-10-08T04:39:08.243Z,95854.97
2022-10-08T04:41:37.257Z,95856.63
2022-10-08T04:44:04.961Z,95855.16
2022-10-08T04:46:32.708Z,95862.88
2022-10-08T04:49:00.411Z,95871.53
2022-10-08T04:51:28.681Z,95865.81
2022-10-08T04:53:58.444Z,95869.25
2022-10-08T04:56:29.083Z,95865.44
2022-10-08T04:58:58.909Z,95864.81
2022-10-08T05:01:28.080Z,95860.78
2022-10-08T05:03:58.629Z,95858.44
2022-10-08T05:06:29.049Z,95857.75
2022-10-08T05:08:57.416Z,95862.75
2022-10-08T05:11:27.799Z,95861.66
2022-10-08T05:13:56.861Z,95860.97
2022-10-08T05:16:27.463Z,95862.84
2022-10-08T05:18:55.409Z,95863.47
2022-10-08T05:21:25.817Z,95855.84
2022-10-08T05:23:57.260Z,95864.47
2022-10-08T05:26:46.493Z,95863.50
2022-10-08T05:29:15.288Z,95858.22
2022-10-08T05:31:44.642Z,95860.44
2022-10-08T05:34:13.834Z,95859.50
2022-10-08T05:36:42.651Z,95864.38
2022-10-08T05:39:12.007Z,95872.13
2022-10-08T05:41:39.945Z,95870.81
2022-10-08T05:44:10.799Z,95870.41
2022-10-08T05:46:39.521Z,95868.84
2022-10-08T05:49:16.426Z,95869.28
2022-10-08T05:51:44.135Z,95872.19
2022-10-08T05:54:11.809Z,95870.34
2022-10-08T05:56:39.819Z,95864.72
2022-10-08T05:59:07.546Z,95871.84
2022-10-08T06:01:35.826Z,95868.28
2022-10-08T06:04:08.927Z,95871.63
2022-10-08T06:06:39.452Z,95874.31
2022-10-08T06:09:08.068Z,95879.28
2022-10-08T06:11:38.002Z,95876.44
2022-10-08T06:14:07.532Z,95877.56
2022-10-08T06:16:36.769Z,95873.72
2022-10-08T06:19:05.396Z,95890.50
2022-10-08T06:21:33.710Z,95890.00
2022-10-08T06:24:04.911Z,95890.41
2022-10-08T06:26:36.426Z,95893.47
2022-10-08T06:29:06.508Z,95890.00
2022-10-08T06:31:35.525Z,95899.88
2022-10-08T06:34:04.518Z,95905.03
2022-10-08T06:36:33.468Z,95900.75
2022-10-08T06:39:04.609Z,95904.50
2022-10-08T06:41:35.207Z,95910.56
2022-10-08T06:44:03.521Z,95912.66
2022-10-08T06:46:33.003Z,95913.50
2022-10-08T06:49:01.754Z,95918.84
2022-10-08T06:51:30.755Z,95925.41
2022-10-08T06:54:06.643Z,95922.97
2022-10-08T06:56:37.245Z,95924.25
2022-10-08T06:59:05.495Z,95924.84
2022-10-08T07:01:34.631Z,95932.03
2022-10-08T07:04:05.426Z,95931.25
2022-10-08T07:06:33.688Z,95928.22
2022-10-08T07:09:02.510Z,95934.94
2022-10-08T07:11:32.044Z,95937.22
2022-10-08T07:14:01.284Z,95938.25
2022-10-08T07:16:30.227Z,95943.16
2022-10-08T07:18:58.748Z,95940.91
2022-10-08T07:21:28.395Z,95940.72
2022-10-08T07:23:56.858Z,95947.66
2022-10-08T07:26:27.770Z,95958.50
2022-10-08T07:28:56.998Z,95959.72
2022-10-08T07:31:29.974Z,95960.75
2022-10-08T07:33:58.429Z,95961.97
2022-10-08T07:36:28.163Z,95964.22
2022-10-08T07:38:56.399Z,95969.31
2022-10-08T07:41:25.068Z,95971.38
2022-10-08T07:43:53.713Z,95968.09
2022-10-08T07:46:22.289Z,95969.94
2022-10-08T07:48:51.797Z,95976.66
2022-10-08T07:51:21.766Z,95971.34
2022-10-08T07:53:50.036Z,95976.91
2022-10-08T07:56:20.661Z,95979.16
2022-10-08T07:58:49.111Z,95972.34
2022-10-08T08:01:19.962Z,95982.00
2022-10-08T08:03:55.333Z,95976.06
2022-10-08T08:06:24.051Z,95976.22
2022-10-08T08:08:52.041Z,95981.72
2022-10-08T08:11:21.807Z,95986.03
2022-10-08T08:13:49.734Z,95980.28
2022-10-08T08:16:19.255Z,95973.97
2022-10-08T08:18:48.765Z,95975.78
2022-10-08T08:21:20.448Z,95981.66
2022-10-08T08:23:50.308Z,95973.00
2022-10-08T08:26:20.252Z,95975.47
2022-10-08T08:28:52.026Z,95965.13
2022-10-08T08:31:23.245Z,95966.38
2022-10-08T08:33:52.720Z,95971.13
2022-10-08T08:36:26.685Z,95976.09
2022-10-08T08:38:54.333Z,95976.94
2022-10-08T08:41:36.968Z,95983.22
2022-10-08T08:44:14.432Z,95979.53
2022-10-08T08:46:47.184Z,95983.13
2022-10-08T08:49:22.363Z,95981.22
2022-10-08T08:51:52.301Z,95983.63
2022-10-08T08:54:20.125Z,95982.03
2022-10-08T08:56:49.203Z,95977.34
2022-10-08T08:59:27.293Z,95979.47
2022-10-08T09:01:59.571Z,95978.16
2022-10-08T09:04:36.132Z,95983.06
2022-10-08T09:07:12.838Z,95985.13
2022-10-08T09:09:43.241Z,95981.31
2022-10-08T09:12:20.758Z,95979.56
2022-10-08T09:14:54.377Z,95981.94
2022-10-08T09:17:29.738Z,95982.69
2022-10-08T09:19:58.287Z,95985.13
2022-10-08T09:22:30.095Z,95983.16
2022-10-08T09:25:01.006Z,95984.03
2022-10-08T09:27:45.370Z,95984.31
2022-10-08T09:30:32.255Z,95977.50
2022-10-08T09:33:02.653Z,95990.50
2022-10-08T09:35:33.470Z,95988.53
2022-10-08T09:38:05.886Z,95989.06
2022-10-08T09:40:34.067Z,95992.97
2022-10-08T09:43:13.667Z,95998.34
2022-10-08T09:45:46.437Z,96000.81
2022-10-08T09:48:21.081Z,96005.50
2022-10-08T09:50:54.464Z,96006.34
2022-10-08T09:53:26.389Z,96001.44
2022-10-08T09:55:58.401Z,95995.38
2022-10-08T09:58:27.024Z,95992.78
2022-10-08T10:01:02.184Z,96003.97
2022-10-08T10:03:30.878Z,95997.38
2022-10-08T10:06:00.803Z,95999.66
2022-10-08T10:08:55.895Z,95998.72
2022-10-08T10:11:31.371Z,96002.34
2022-10-08T10:14:05.749Z,96009.91
2022-10-08T10:16:37.335Z,96005.00
2022-10-08T10:19:08.725Z,96013.41
2022-10-08T10:21:41.550Z,96007.03
2022-10-08T10:24:39.463Z,96010.50
2022-10-08T10:27:12.178Z,96014.16
2022-10-08T10:29:49.257Z,96009.09
2022-10-08T10:32:21.338Z,96005.53
2022-10-08T10:34:59.720Z,96010.75
2022-10-08T10:37:34.441Z,96000.00
2022-10-08T10:40:18.718Z,96002.56
2022-10-08T10:42:55.950Z,95997.38
2022-10-08T10:45:27.201Z,96000.91
2022-10-08T10:47:55.455Z,95994.66
2022-10-08T10:50:30.090Z,96004.03
2022-10-08T10:53:09.220Z,95994.50
2022-10-08T10:55:41.787Z,95999.84
2022-10-08T10:58:23.493Z,95994.78
2022-10-08T11:01:01.852Z,95990.97
2022-10-08T11:03:39.427Z,95998.44
2022-10-08T11:06:30.095Z,95986.50
2022-10-08T11:09:02.736Z,95990.97
2022-10-08T11:11:39.705Z,95981.75
2022-10-08T11:14:33.597Z,95982.13
2022-10-08T11:17:10.345Z,95988.63
2022-10-08T11:19:51.391Z,95983.63
2022-10-08T11:22:25.826Z,95990.25
2022-10-08T11:25:21.081Z,95981.41
2022-10-08T11:28:03.891Z,95986.09
2022-10-08T11:30:41.398Z,95983.00
2022-10-08T11:33:13.829Z,95987.25
2022-10-08T11:35:50.182Z,95991.09
2022-10-08T11:38:25.138Z,95985.81
2022-10-08T11:40:56.841Z,95982.44
2022-10-08T11:43:33.094Z,95990.47
2022-10-08T11:46:22.450Z,95990.03
2022-10-08T11:48:50.919Z,95985.84
2022-10-08T11:51:40.319Z,95975.88
2022-10-08T11:54:16.323Z,95976.84
2022-10-08T11:56:47.285Z,95968.25
2022-10-08T11:59:34.999Z,95973.72
2022-10-08T12:02:05.297Z,95977.44
2022-10-08T12:04:36.378Z,95980.13
2022-10-08T12:07:21.198Z,95976.84
2022-10-08T12:10:10.367Z,95976.47
2022-10-08T12:13:01.784Z,95976.47
2022-10-08T12:16:04.835Z,95973.69
2022-10-08T12:18:43.696Z,95979.47
2022-10-08T12:21:49.070Z,95972.94
2022-10-08T12:24:50.330Z,95968.50
2022-10-08T12:27:41.196Z,95952.38
2022-10-08T12:30:11.604Z,95960.31
2022-10-08T12:32:57.898Z,95956.94
2022-10-08T12:35:31.843Z,95952.63
2022-10-08T12:38:18.636Z,95960.31
2022-10-08T12:40:56.084Z,95965.41
2022-10-08T12:43:32.408Z,95959.25
2022-10-08T12:46:12.255Z,95969.47
2022-10-08T12:48:49.744Z,95966.41
2022-10-08T12:51:26.324Z,95954.56
2022-10-08T12:53:54.962Z,95960.94
2022-10-08T12:56:28.350Z,95969.56
2022-10-08T12:58:59.152Z,95972.47
2022-10-08T13:01:27.506Z,95963.72
2022-10-08T13:04:19.750Z,95970.75
2022-10-08T13:06:49.018Z,95962.59
2022-10-08T13:09:26.469Z,95970.47
2022-10-08T13:11:59.425Z,95972.00
2022-10-08T13:14:32.848Z,95973.19
2022-10-08T13:17:01.187Z,95970.66
2022-10-08T13:19:33.166Z,95977.41
2022-10-08T13:22:02.721Z,95969.63
2022-10-08T13:24:41.789Z,95975.31
2022-10-08T13:27:23.723Z,95968.56
2022-10-08T13:29:51.850Z,95975.31
2022-10-08T13:32:22.630Z,95970.47
2022-10-08T13:34:55.334Z,95972.72
2022-10-08T13:37:29.317Z,95974.44
2022-10-08T13:39:58.943Z,95967.81
2022-10-08T13:42:30.694Z,95975.31
2022-10-08T13:45:00.966Z,95975.78
2022-10-08T13:47:29.855Z,95971.94
2022-10-08T13:50:02.395Z,95981.13
2022-10-08T13:52:33.515Z,95994.28
2022-10-08T13:55:04.294Z,95990.84
2022-10-08T13:57:32.096Z,95989.91
2022-10-08T14:00:00.406Z,95990.09
2022-10-08T14:02:28.191Z,95989.31
2022-10-08T14:04:55.915Z,95992.00
2022-10-08T14:07:28.649Z,95993.22
2022-10-08T14:09:58.517Z,95999.28
2022-10-08T14:12:30.106Z,95991.38
2022-10-08T14:14:58.094Z,95987.94
2022-10-08T14:17:26.239Z,95995.78
2022-10-08T14:19:55.355Z,95990.50
2022-10-08T14:22:23.521Z,95987.59
2022-10-08T14:24:53.634Z,95992.53
2022-10-08T14:27:21.495Z,96004.81
2022-10-08T14:29:49.598Z,96000.31
2022-10-08T14:32:17.245Z,96005.63
2022-10-08T14:34:45.331Z,96004.81
2022-10-08T14:37:12.973Z,96000.72
2022-10-08T14:39:40.647Z,96010.19
2022-10-08T14:42:09.646Z,96006.13
2022-10-08T14:44:37.465Z,96010.84
2022-10-08T14:47:05.531Z,96010.38
2022-10-08T14:49:33.186Z,96009.97
2022-10-08T14:52:00.879Z,96014.09
2022-10-08T14:54:29.296Z,96014.38
2022-10-08T14:56:57.258Z,96009.25
2022-10-08T14:59:26.286Z,96009.47
2022-10-08T15:01:54.047Z,96006.63
2022-10-08T15:04:21.780Z,96010.75
2022-10-08T15:06:49.442Z,96016.50
2022-10-08T15:09:17.153Z,96016.88
2022-10-08T15:11:44.842Z,96019.78
2022-10-08T15:14:12.525Z,96016.47
2022-10-08T15:16:41.933Z,96015.66
2022-10-08T15:19:10.203Z,96021.00
2022-10-08T15:21:37.934Z,96022.28
2022-10-08T15:24:05.906Z,96019.44
2022-10-08T15:26:33.844Z,96021.13
2022-10-08T15:29:02.047Z,96030.41
2022-10-08T15:31:29.866Z,96022.41
2022-10-08T15:33:59.613Z,96033.88
2022-10-08T15:36:29.931Z,96031.03
2022-10-08T15:38:59.426Z,96032.47
2022-10-08T15:41:28.410Z,96036.38
2022-10-08T15:43:56.474Z,96044.97
2022-10-08T15:46:28.856Z,96035.56
2022-10-08T15:48:57.726Z,96045.78
2022-10-08T15:51:27.094Z,96044.97
2022-10-08T15:53:54.765Z,96048.88
2022-10-08T15:56:22.495Z,96052.75
2022-10-08T15:58:51.383Z,96052.78
2022-10-08T16:01:21.533Z,96056.88
2022-10-08T16:03:50.809Z,96062.63
2022-10-08T16:06:21.550Z,96066.31
2022-10-08T16:08:50.984Z,96076.97
2022-10-08T16:11:20.494Z,96077.38
2022-10-08T16:13:51.703Z,96065.91
2022-10-08T16:16:20.783Z,96071.03
2022-10-08T16:18:51.004Z,96072.06
2022-10-08T16:21:20.962Z,96081.47
2022-10-08T16:23:51.761Z,96086.78
2022-10-08T16:26:21.863Z,96088.63
2022-10-08T16:28:51.702Z,96092.94
2022-10-08T16:31:20.205Z,96088.63
2022-10-08T16:33:48.828Z,96100.69
2022-10-08T16:36:16.535Z,96097.84
2022-10-08T16:38:44.239Z,96102.75
2022-10-08T16:41:16.339Z,96108.44
2022-10-08T16:43:46.194Z,96110.94
2022-10-08T16:46:19.499Z,96104.19
2022-10-08T16:48:52.155Z,96115.66
2022-10-08T16:51:20.506Z,96108.88
2022-10-08T16:53:49.381Z,96114.84
2022-10-08T16:56:18.873Z,96121.09
2022-10-08T16:58:46.609Z,96128.00
2022-10-08T17:01:14.369Z,96124.91
2022-10-08T17:03:42.101Z,96124.63
2022-10-08T17:06:11.054Z,96136.06
2022-10-08T17:08:39.333Z,96137.06
2022-10-08T17:11:09.121Z,96142.53
2022-10-08T17:13:41.723Z,96150.25
2022-10-08T17:16:09.486Z,96144.09
2022-10-08T17:18:37.332Z,96146.88
2022-10-08T17:21:07.102Z,96152.53
2022-10-08T17:23:38.240Z,96156.16
2022-10-08T17:26:08.476Z,96155.91
2022-10-08T17:28:39.882Z,96153.22
2022-10-08T17:31:09.732Z,96161.97
2022-10-08T17:33:37.459Z,96156.19
2022-10-08T17:36:08.093Z,96159.03
2022-10-08T17:38:37.094Z,96174.69
2022-10-08T17:41:11.633Z,96176.50
2022-10-08T17:43:40.714Z,96178.75
2022-10-08T17:46:10.323Z,96182.34
2022-10-08T17:48:38.198Z,96186.69
2022-10-08T17:51:07.233Z,96189.91
2022-10-08T17:53:34.997Z,96202.84
2022-10-08T17:56:06.096Z,96200.84
2022-10-08T17:58:34.101Z,96202.84
2022-10-08T18:01:12.870Z,96203.44
2022-10-08T18:03:42.245Z,96199.16
2022-10-08T18:06:11.730Z,96209.59
2022-10-08T18:08:39.531Z,96203.06
2022-10-08T18:11:08.818Z,96205.66
2022-10-08T18:13:37.365Z,96206.19
2022-10-08T18:16:06.411Z,96216.50
2022-10-08T18:18:36.034Z,96223.84
2022-10-08T18:21:05.044Z,96217.75
2022-10-08T18:23:34.768Z,96230.19
2022-10-08T18:26:11.558Z,96229.97
2022-10-08T18:28:39.355Z,96233.06
2022-10-08T18:31:09.578Z,96235.72
2022-10-08T18:33:40.046Z,96241.03
2022-10-08T18:36:09.865Z,96247.50
2022-10-08T18:38:37.560Z,96242.44
2022-10-08T18:41:13.053Z,96237.72
2022-10-08T18:43:40.744Z,96243.31
2022-10-08T18:46:08.542Z,96250.63
2022-10-08T18:48:38.310Z,96251.28
2022-10-08T18:51:08.165Z,96258.88
2022-10-08T18:53:37.615Z,96258.25
2022-10-08T18:56:08.119Z,96264.50
2022-10-08T18:58:37.471Z,96263.00
2022-10-08T19:01:05.970Z,96263.63
2022-10-08T19:03:34.107Z,96266.41
2022-10-08T19:06:03.161Z,96270.81
2022-10-08T19:08:30.867Z,96277.38
2022-10-08T19:10:58.568Z,96276.34
2022-10-08T19:13:26.302Z,96275.38
2022-10-08T19:15:54.063Z,96270.41
2022-10-08T19:18:21.831Z,96284.09
2022-10-08T19:20:49.514Z,96288.97
2022-10-08T19:23:18.770Z,96285.22
2022-10-08T19:25:46.455Z,96290.47
2022-10-08T19:28:14.240Z,96298.41
2022-10-08T19:30:42.024Z,96295.38
2022-10-08T19:33:09.733Z,96297.13
2022-10-08T19:35:37.431Z,96302.97
2022-10-08T19:38:05.575Z,96313.56
2022-10-08T19:40:35.041Z,96316.59
2022-10-08T19:43:04.185Z,96309.16
2022-10-08T19:45:34.525Z,96315.03
2022-10-08T19:48:02.197Z,96318.69
2022-10-08T19:50:29.944Z,96320.41
2022-10-08T19:52:58.343Z,96324.91
2022-10-08T19:55:26.179Z,96322.69
2022-10-08T19:57:55.234Z,96330.38
2022-10-08T20:00:22.930Z,96337.75
2022-10-08T20:02:51.473Z,96346.88
2022-10-08T20:05:19.332Z,96343.94
2022-10-08T20:07:47.019Z,96344.28
2022-10-08T20:10:17.006Z,96351.72
2022-10-08T20:12:45.108Z,96346.28
2022-10-08T20:15:14.511Z,96352.06
2022-10-08T20:17:42.513Z,96350.72
2022-10-08T20:20:31.664Z,96349.91
2022-10-08T20:22:58.673Z,96361.31
2022-10-08T20:25:26.349Z,96365.09
2022-10-08T20:27:54.401Z,96360.50
2022-10-08T20:30:23.651Z,96366.88
2022-10-08T20:32:51.591Z,96362.03
2022-10-08T20:35:19.317Z,96365.69
2022-10-08T20:37:47.678Z,96365.63
2022-10-08T20:40:15.400Z,96374.06
2022-10-08T20:42:43.690Z,96367.38
2022-10-08T20:45:12.205Z,96369.47
2022-10-08T20:47:41.251Z,96368.28
2022-10-08T20:50:09.630Z,96369.53
2022-10-08T20:52:37.335Z,96372.16
2022-10-08T20:55:05.536Z,96375.19
2022-10-08T20:57:33.237Z,96375.38
2022-10-08T21:00:00.918Z,96374.53
2022-10-08T21:02:28.759Z,96367.03
2022-10-08T21:04:57.856Z,96371.66
2022-10-08T21:07:25.873Z,96374.97
2022-10-08T21:09:53.646Z,96373.47
2022-10-08T21:12:21.982Z,96374.28
2022-10-08T21:14:49.676Z,96373.28
2022-10-08T21:17:17.738Z,96375.94
2022-10-08T21:19:45.480Z,96380.25
2022-10-08T21:22:14.579Z,96379.25
2022-10-08T21:24:42.419Z,96383.72
2022-10-08T21:27:10.074Z,96383.72
2022-10-08T21:29:37.857Z,96384.88
2022-10-08T21:32:05.955Z,96384.88
2022-10-08T21:34:34.013Z,96386.53
2022-10-08T21:37:01.957Z,96396.66
2022-10-08T21:39:31.219Z,96395.97
2022-10-08T21:41:58.918Z,96396.41
2022-10-08T21:44:26.629Z,96390.44
2022-10-08T21:46:54.944Z,96396.19
2022-10-08T21:49:23.994Z,96400.66
2022-10-08T21:51:52.562Z,96404.66
2022-10-08T21:54:20.255Z,96402.06
2022-10-08T21:56:49.647Z,96397.25
2022-10-08T21:59:17.412Z,96397.31
2022-10-08T22:01:47.643Z,96400.38
2022-10-08T22:04:17.762Z,96400.66
2022-10-08T22:06:47.915Z,96391.53
2022-10-08T22:09:17.972Z,96395.19
2022-10-08T22:11:46.551Z,96389.41
2022-10-08T22:14:16.454Z,96396.28
2022-10-08T22:16:44.431Z,96393.91
2022-10-08T22:19:12.258Z,96397.88
2022-10-08T22:21:40.813Z,96387.25
2022-10-08T22:24:09.006Z,96387.13
2022-10-08T22:26:39.240Z,96397.84
2022-10-08T22:29:08.191Z,96396.28
2022-10-08T22:31:37.636Z,96387.03
2022-10-08T22:34:06.223Z,96384.50
2022-10-08T22:36:37.427Z,96380.16
2022-10-08T22:39:05.694Z,96375.69
2022-10-08T22:41:33.915Z,96381.81
2022-10-08T22:44:02.707Z,96385.81
2022-10-08T22:46:33.101Z,96383.19
2022-10-08T22:49:03.780Z,96387.41
2022-10-08T22:51:32.619Z,96387.72
2022-10-08T22:54:00.951Z,96380.78
2022-10-08T22:56:30.503Z,96374.94
2022-10-08T22:58:59.847Z,96381.50
2022-10-08T23:01:29.499Z,96377.19
2022-10-08T23:03:58.167Z,96377.56
2022-10-08T23:06:29.220Z,96380.16
2022-10-08T23:08:59.383Z,96379.69
2022-10-08T23:11:27.891Z,96376.53
2022-10-08T23:13:57.477Z,96383.13
2022-10-08T23:16:26.557Z,96374.41
2022-10-08T23:18:56.613Z,96380.50
2022-10-08T23:21:24.613Z,96371.59
2022-10-08T23:23:54.751Z,96372.41
2022-10-08T23:26:23.415Z,96368.31
2022-10-08T23:28:52.910Z,96377.84
2022-10-08T23:31:22.424Z,96373.88
2022-10-08T23:33:52.354Z,96366.13
2022-10-08T23:36:22.613Z,96369.75
2022-10-08T23:38:50.677Z,96367.94
2022-10-08T23:41:20.097Z,96371.06
2022-10-08T23:43:50.925Z,96375.81
2022-10-08T23:46:20.597Z,96377.16
2022-10-08T23:48:49.539Z,96385.38
2022-10-08T23:51:18.601Z,96381.06
2022-10-08T23:53:47.351Z,96378.44
2022-10-08T23:56:15.625Z,96378.78
2022-10-08T23:58:44.694Z,96371.84
